createdAt,value
2023-03-23T16:02:12.050Z,4.40
2023-03-23T16:07:14.990Z,4.70
2023-03-23T16:12:17.945Z,3.90
2023-03-23T16:17:21.830Z,3.70
2023-03-23T16:22:24.539Z,4.40
2023-03-23T16:27:27.362Z,4.60
2023-03-23T16:32:30.319Z,6.00
2023-03-23T16:37:33.801Z,5.80
2023-03-23T16:42:36.457Z,4.90
2023-03-23T16:47:40.719Z,4.70
2023-03-23T16:52:47.665Z,4.70
2023-03-23T16:57:50.333Z,4.90
2023-03-23T17:02:56.961Z,4.80
2023-03-23T17:07:59.801Z,4.80
2023-03-23T17:13:02.602Z,4.80
2023-03-23T17:18:07.054Z,5.70
2023-03-23T17:23:10.337Z,5.00
2023-03-23T17:28:13.766Z,5.10
2023-03-23T17:33:16.488Z,5.70
2023-03-23T17:38:19.482Z,5.20
2023-03-23T17:43:22.175Z,6.60
2023-03-23T17:48:25.072Z,5.90
2023-03-23T17:53:29.417Z,6.30
2023-03-23T17:58:32.385Z,6.60
2023-03-23T18:03:35.941Z,6.80
2023-03-23T18:08:39.671Z,6.80
2023-03-23T18:13:42.464Z,7.00
2023-03-23T18:18:47.209Z,6.90
2023-03-23T18:23:58.819Z,7.10
2023-03-23T18:29:03.160Z,7.10
2023-03-23T18:34:06.540Z,7.00
2023-03-23T18:39:11.012Z,7.40
2023-03-23T18:44:14.018Z,7.60
2023-03-23T18:49:16.734Z,8.10
2023-03-23T18:54:19.416Z,7.60
2023-03-23T18:59:24.159Z,7.10
2023-03-23T19:04:31.662Z,7.90
2023-03-23T19:09:34.971Z,8.60
2023-03-23T19:14:40.252Z,9.30
2023-03-23T19:19:43.782Z,8.50
2023-03-23T19:24:46.592Z,7.30
2023-03-23T19:29:49.477Z,6.40
2023-03-23T19:34:52.484Z,5.40
2023-03-23T19:39:55.775Z,5.00
2023-03-23T19:44:59.397Z,5.00
2023-03-23T19:50:02.144Z,5.30
2023-03-23T19:55:05.500Z,4.90
2023-03-23T20:00:09.252Z,4.70
2023-03-23T20:05:12.470Z,5.00
2023-03-23T20:10:15.887Z,3.50
2023-03-23T20:15:18.672Z,4.20
2023-03-23T20:20:21.466Z,3.80
2023-03-23T20:25:24.600Z,3.50
2023-03-23T20:30:27.462Z,2.80
2023-03-23T20:35:30.790Z,2.50
2023-03-23T20:40:33.441Z,2.90
2023-03-23T20:45:36.691Z,4.10
2023-03-23T20:50:39.825Z,3.00
2023-03-23T20:55:42.650Z,2.50
2023-03-23T21:00:47.168Z,2.30
2023-03-23T21:05:49.919Z,2.40
2023-03-23T21:10:52.650Z,2.60
2023-03-23T21:15:55.328Z,2.50
2023-03-23T21:20:58.672Z,2.70
2023-03-23T21:26:06.096Z,2.20
2023-03-23T21:31:08.938Z,3.10
2023-03-23T21:36:11.777Z,4.20
2023-03-23T21:41:14.982Z,4.40
2023-03-23T21:46:18.440Z,3.30
2023-03-23T21:51:27.405Z,3.10
2023-03-23T21:56:30.595Z,3.70
2023-03-23T22:01:36.921Z,4.20
2023-03-23T22:06:40.125Z,3.50
2023-03-23T22:11:43.253Z,3.20
2023-03-23T22:16:46.161Z,3.60
2023-03-23T22:21:48.931Z,4.00
2023-03-23T22:26:53.051Z,4.00
2023-03-23T22:31:56.141Z,3.90
2023-03-23T22:36:58.912Z,4.40
2023-03-23T22:42:01.706Z,4.90
2023-03-23T22:47:04.396Z,4.30
2023-03-23T22:52:07.110Z,4.50
2023-03-23T22:57:10.181Z,4.40
2023-03-23T23:02:12.903Z,3.60
2023-03-23T23:07:16.162Z,3.90
2023-03-23T23:12:20.358Z,3.80
2023-03-23T23:17:22.991Z,3.60
2023-03-23T23:22:26.624Z,3.40
2023-03-23T23:27:29.324Z,2.80
2023-03-23T23:32:33.761Z,3.10
2023-03-23T23:37:36.415Z,2.40
2023-03-23T23:42:39.124Z,2.30
2023-03-23T23:47:42.520Z,2.40
2023-03-23T23:52:45.434Z,2.60
2023-03-23T23:57:49.275Z,3.00
